Time;durP1;ratioP1;P1;durP2;ratioP2;P2;SDS_P1;SDS_P2;PMS_P1;PMS_P2;Temp;Humidity;BMP_temperature;BMP_pressure;BME280_temperature;BME280_humidity;BME280_pressure;Samples;Min_cycle;Max_cycle;Signal;HPM_P1;HPM_P2
2023/02/01 00:00:51;;;;;;;5.22;2.20;;;;;;;;;;5053759;28;20021;-60
2023/02/01 00:03:18;;;;;;;7.40;1.98;;;;;;;;;;5055427;28;20502;-60
2023/02/01 00:05:45;;;;;;;4.65;2.22;;;;;;;;;;5055071;28;20029;-61
2023/02/01 00:08:12;;;;;;;3.33;2.08;;;;;;;;;;5055538;28;20033;-61
2023/02/01 00:10:39;;;;;;;2.03;1.65;;;;;;;;;;5064289;28;20509;-60
2023/02/01 00:13:06;;;;;;;2.20;1.73;;;;;;;;;;5071735;28;20232;-61
2023/02/01 00:15:33;;;;;;;3.97;2.30;;;;;;;;;;5070259;28;20111;-61
2023/02/01 00:18:00;;;;;;;2.10;1.60;;;;;;;;;;5069319;28;20029;-61
2023/02/01 00:20:27;;;;;;;5.07;1.40;;;;;;;;;;5052311;28;20024;-60
2023/02/01 00:22:53;;;;;;;10.60;2.20;;;;;;;;;;5072644;28;20029;-61
2023/02/01 00:25:20;;;;;;;3.27;1.97;;;;;;;;;;5060059;28;20079;-61
2023/02/01 00:27:50;;;;;;;3.47;2.40;;;;;;;;;;5058346;28;20427;-61
2023/02/01 00:30:18;;;;;;;7.37;2.00;;;;;;;;;;5074914;28;20020;-60
2023/02/01 00:32:44;;;;;;;4.80;2.40;;;;;;;;;;5074943;28;20051;-61
2023/02/01 00:35:11;;;;;;;3.37;1.90;;;;;;;;;;5071683;28;20472;-60
2023/02/01 00:37:38;;;;;;;3.57;2.23;;;;;;;;;;5069438;28;20021;-61
2023/02/01 00:40:04;;;;;;;2.90;1.90;;;;;;;;;;5069558;28;20055;-61
2023/02/01 00:42:31;;;;;;;3.70;2.33;;;;;;;;;;5067947;28;20046;-60
2023/02/01 00:44:58;;;;;;;2.23;1.53;;;;;;;;;;5051994;28;20051;-60
2023/02/01 00:47:24;;;;;;;2.40;1.80;;;;;;;;;;5054677;28;20037;-60
2023/02/01 00:49:51;;;;;;;3.63;2.63;;;;;;;;;;5054830;28;20476;-60
2023/02/01 00:52:18;;;;;;;6.23;3.77;;;;;;;;;;5065225;28;20060;-60
2023/02/01 00:54:45;;;;;;;3.30;2.17;;;;;;;;;;5074678;28;20391;-60
2023/02/01 00:57:12;;;;;;;3.20;2.03;;;;;;;;;;5072094;28;20096;-61
2023/02/01 00:59:38;;;;;;;7.13;3.37;;;;;;;;;;5069321;28;20025;-60
2023/02/01 01:02:05;;;;;;;2.20;1.50;;;;;;;;;;5069471;28;20079;-60
2023/02/01 01:04:32;;;;;;;3.77;2.30;;;;;;;;;;5059008;28;20075;-61
2023/02/01 01:06:58;;;;;;;5.03;2.43;;;;;;;;;;5050471;28;20036;-60
2023/02/01 01:09:25;;;;;;;4.60;2.27;;;;;;;;;;5054329;28;20028;-60
2023/02/01 01:11:52;;;;;;;6.67;2.70;;;;;;;;;;5065692;28;20036;-60
2023/02/01 01:14:19;;;;;;;4.67;2.77;;;;;;;;;;5068126;28;20178;-58
2023/02/01 01:16:47;;;;;;;5.80;1.83;;;;;;;;;;5053732;28;20029;-58
2023/02/01 01:19:14;;;;;;;3.73;2.53;;;;;;;;;;5052478;28;20029;-59
2023/02/01 01:21:41;;;;;;;3.10;1.90;;;;;;;;;;5067615;28;20024;-59
2023/02/01 01:24:08;;;;;;;4.40;1.80;;;;;;;;;;5069100;28;20028;-58
2023/02/01 01:26:36;;;;;;;4.10;2.67;;;;;;;;;;5068814;28;20021;-58
2023/02/01 01:29:03;;;;;;;3.50;2.33;;;;;;;;;;5069670;28;20060;-58
2023/02/01 01:31:31;;;;;;;2.13;1.70;;;;;;;;;;5070568;28;20118;-60
2023/02/01 01:33:59;;;;;;;5.17;3.00;;;;;;;;;;5064705;28;20020;-60
2023/02/01 01:36:28;;;;;;;3.37;2.10;;;;;;;;;;5053753;28;20642;-59
2023/02/01 01:38:55;;;;;;;2.03;1.37;;;;;;;;;;5067185;28;20017;-59
2023/02/01 01:41:26;;;;;;;4.20;1.87;;;;;;;;;;5072457;28;20491;-60
2023/02/01 01:43:53;;;;;;;2.43;1.53;;;;;;;;;;5055342;28;20078;-60
2023/02/01 01:46:30;;;;;;;3.53;2.30;;;;;;;;;;5048394;28;20028;-59
2023/02/01 01:49:06;;;;;;;5.77;3.57;;;;;;;;;;5048362;28;20083;-59
2023/02/01 01:51:36;;;;;;;5.27;3.43;;;;;;;;;;5067159;28;20052;-59
2023/02/01 01:54:08;;;;;;;5.67;2.10;;;;;;;;;;5073744;28;20484;-59
2023/02/01 01:56:35;;;;;;;11.20;2.70;;;;;;;;;;5073194;28;20025;-59
2023/02/01 01:59:03;;;;;;;2.17;1.70;;;;;;;;;;5072812;28;20052;-59
2023/02/01 02:01:30;;;;;;;3.97;1.90;;;;;;;;;;5073221;28;20055;-59
2023/02/01 02:03:58;;;;;;;4.67;1.77;;;;;;;;;;5066786;28;20027;-59
2023/02/01 02:06:32;;;;;;;13.57;2.87;;;;;;;;;;5048241;28;20495;-59
2023/02/01 02:08:59;;;;;;;4.82;3.25;;;;;;;;;;5047874;28;20037;-58
2023/02/01 02:11:26;;;;;;;4.57;2.60;;;;;;;;;;5055759;28;20035;-60
2023/02/01 02:13:55;;;;;;;2.87;1.87;;;;;;;;;;5059458;28;20566;-60
2023/02/01 02:16:29;;;;;;;3.60;2.37;;;;;;;;;;5061463;28;20440;-59
2023/02/01 02:19:14;;;;;;;6.67;3.27;;;;;;;;;;5068987;28;20024;-60
2023/02/01 02:21:41;;;;;;;4.05;2.72;;;;;;;;;;5063688;28;20032;-60
2023/02/01 02:24:26;;;;;;;3.23;2.33;;;;;;;;;;5063663;28;20429;-58
2023/02/01 02:27:01;;;;;;;5.65;3.30;;;;;;;;;;5069458;28;20033;-59
2023/02/01 02:29:46;;;;;;;2.13;1.70;;;;;;;;;;5057321;28;20052;-59
2023/02/01 02:32:31;;;;;;;10.90;2.80;;;;;;;;;;5058622;28;20035;-60
2023/02/01 02:35:14;;;;;;;5.50;1.90;;;;;;;;;;5047380;28;20040;-59
2023/02/01 02:37:43;;;;;;;9.40;3.87;;;;;;;;;;5051651;28;20029;-59
2023/02/01 02:40:23;;;;;;;11.43;3.87;;;;;;;;;;5065586;28;20028;-59
2023/02/01 02:48:38;;;;;;;7.43;2.83;;;;;;;;;;5060370;28;20051;-58
2023/02/01 03:05:51;;;;;;;3.90;2.00;;;;;;;;;;4989728;28;20096;-61
2023/02/01 03:08:20;;;;;;;9.00;2.00;;;;;;;;;;5052047;28;20120;-58
2023/02/01 03:10:54;;;;;;;5.90;3.50;;;;;;;;;;5050450;28;20380;-58
2023/02/01 03:13:28;;;;;;;9.98;2.78;;;;;;;;;;5046909;28;20480;-58
2023/02/01 03:15:56;;;;;;;4.05;2.78;;;;;;;;;;5048347;28;20041;-58
2023/02/01 03:18:45;;;;;;;5.27;2.57;;;;;;;;;;5056510;28;20020;-58
2023/02/01 03:21:15;;;;;;;6.87;2.17;;;;;;;;;;5048716;28;20033;-58
2023/02/01 03:23:44;;;;;;;2.30;1.83;;;;;;;;;;5051984;28;20505;-60
2023/02/01 03:26:14;;;;;;;3.60;1.40;;;;;;;;;;5052073;28;20029;-59
2023/02/01 03:28:51;;;;;;;4.97;1.97;;;;;;;;;;5055934;28;20076;-59
2023/02/01 03:31:18;;;;;;;2.37;1.37;;;;;;;;;;5056226;28;20052;-61
2023/02/01 03:33:45;;;;;;;8.50;3.93;;;;;;;;;;5052793;28;20484;-60
2023/02/01 03:36:38;;;;;;;3.03;1.90;;;;;;;;;;5065158;28;20036;-59
2023/02/01 03:39:17;;;;;;;2.80;1.50;;;;;;;;;;5049987;28;20396;-60
2023/02/01 03:41:44;;;;;;;5.33;1.77;;;;;;;;;;5058559;28;20553;-60
2023/02/01 03:44:14;;;;;;;4.83;2.53;;;;;;;;;;5069427;28;20517;-60
2023/02/01 03:46:50;;;;;;;6.27;3.00;;;;;;;;;;5076035;28;20482;-59
2023/02/01 03:49:27;;;;;;;2.53;1.87;;;;;;;;;;5069863;28;20439;-60
2023/02/01 03:51:55;;;;;;;7.33;1.80;;;;;;;;;;5055723;28;20057;-59
2023/02/01 03:54:22;;;;;;;3.80;2.27;;;;;;;;;;5057701;28;20028;-59
2023/02/01 03:56:51;;;;;;;2.70;1.47;;;;;;;;;;5052053;28;20428;-60
2023/02/01 03:59:17;;;;;;;1.97;1.30;;;;;;;;;;5051639;28;20562;-59
2023/02/01 04:01:44;;;;;;;1.77;1.37;;;;;;;;;;5050556;28;20024;-59
2023/02/01 04:04:19;;;;;;;9.07;3.33;;;;;;;;;;5050210;28;20043;-58
2023/02/01 04:06:45;;;;;;;;;;;;;;;;;;5054530;28;20502;-60
2023/02/01 04:09:13;;;;;;;6.73;3.00;;;;;;;;;;5055435;28;19913;-59
2023/02/01 04:11:40;;;;;;;1.87;1.47;;;;;;;;;;5060127;28;20040;-60
2023/02/01 04:14:07;;;;;;;2.77;1.93;;;;;;;;;;5075612;28;20078;-59
2023/02/01 04:16:34;;;;;;;6.50;2.00;;;;;;;;;;5075453;28;20032;-59
2023/02/01 04:19:01;;;;;;;9.97;1.77;;;;;;;;;;5070740;28;20028;-59
2023/02/01 04:21:29;;;;;;;3.53;2.40;;;;;;;;;;5070109;28;20505;-60
2023/02/01 04:23:56;;;;;;;3.83;2.53;;;;;;;;;;5069755;28;20020;-59
2023/02/01 04:26:23;;;;;;;5.23;2.73;;;;;;;;;;5069953;28;20029;-62
2023/02/01 04:28:52;;;;;;;9.53;2.80;;;;;;;;;;5054995;28;20059;-61
2023/02/01 04:31:25;;;;;;;3.17;2.07;;;;;;;;;;5054961;28;20111;-59
2023/02/01 04:33:53;;;;;;;2.43;1.70;;;;;;;;;;5055218;28;20119;-59
2023/02/01 04:36:21;;;;;;;3.13;2.07;;;;;;;;;;5054622;28;20044;-59
2023/02/01 04:38:49;;;;;;;4.60;2.50;;;;;;;;;;5054802;28;20050;-59
2023/02/01 04:41:19;;;;;;;4.40;2.67;;;;;;;;;;5050231;28;20105;-59
2023/02/01 04:43:51;;;;;;;2.60;1.60;;;;;;;;;;5050881;28;20377;-59
2023/02/01 04:46:19;;;;;;;1.20;0.97;;;;;;;;;;5066703;28;20028;-59
2023/02/01 04:48:45;;;;;;;1.60;1.50;;;;;;;;;;5050750;28;20487;-59
2023/02/01 04:51:13;;;;;;;2.63;2.13;;;;;;;;;;5062238;28;20028;-59
2023/02/01 04:53:39;;;;;;;2.80;1.50;;;;;;;;;;5054563;28;20071;-59
2023/02/01 04:56:06;;;;;;;5.43;1.93;;;;;;;;;;5056684;28;20029;-59
2023/02/01 04:58:33;;;;;;;3.87;2.33;;;;;;;;;;5072148;28;20083;-60
2023/02/01 05:01:02;;;;;;;1.87;1.27;;;;;;;;;;5058698;28;20052;-59
2023/02/01 05:03:29;;;;;;;2.57;2.20;;;;;;;;;;5049844;28;20032;-61
2023/02/01 05:05:56;;;;;;;2.37;1.97;;;;;;;;;;5049488;28;20021;-60
2023/02/01 05:08:25;;;;;;;8.07;1.57;;;;;;;;;;5048627;28;20037;-60
2023/02/01 05:10:51;;;;;;;5.03;2.63;;;;;;;;;;5048977;28;20037;-60
2023/02/01 05:16:03;;;;;;;;;;;;;;;;;;5054829;28;20119;-60
2023/02/01 05:18:30;;;;;;;1.43;1.00;;;;;;;;;;5053865;28;19912;-61
2023/02/01 05:20:56;;;;;;;3.97;2.77;;;;;;;;;;5054201;28;20527;-60
2023/02/01 05:23:23;;;;;;;2.83;1.70;;;;;;;;;;5054230;28;20107;-61
2023/02/01 05:25:50;;;;;;;2.40;1.90;;;;;;;;;;5049267;28;20083;-61
2023/02/01 05:28:17;;;;;;;3.60;2.53;;;;;;;;;;5065288;28;20119;-62
2023/02/01 05:30:43;;;;;;;9.17;2.17;;;;;;;;;;5051994;28;20029;-61
2023/02/01 05:33:10;;;;;;;3.03;2.23;;;;;;;;;;5048717;28;20031;-61
2023/02/01 05:35:37;;;;;;;4.87;1.80;;;;;;;;;;5051890;28;20112;-61
2023/02/01 05:38:03;;;;;;;18.20;3.90;;;;;;;;;;5054769;28;20017;-62
2023/02/01 05:40:30;;;;;;;7.70;1.70;;;;;;;;;;5053827;28;20029;-61
2023/02/01 05:42:57;;;;;;;2.00;1.50;;;;;;;;;;5053610;28;20472;-61
2023/02/01 05:45:23;;;;;;;3.37;2.73;;;;;;;;;;5053756;28;20047;-61
2023/02/01 05:47:50;;;;;;;2.50;2.00;;;;;;;;;;5049507;28;20072;-61
2023/02/01 05:50:17;;;;;;;2.53;1.40;;;;;;;;;;5050312;28;20021;-61
2023/02/01 05:52:44;;;;;;;4.90;2.37;;;;;;;;;;5067801;28;20052;-61
2023/02/01 05:55:11;;;;;;;10.37;3.10;;;;;;;;;;5068135;28;20039;-61
2023/02/01 05:57:37;;;;;;;4.03;2.20;;;;;;;;;;5071526;28;20021;-61
2023/02/01 06:00:04;;;;;;;6.10;3.00;;;;;;;;;;5073180;28;20483;-61
2023/02/01 06:02:31;;;;;;;2.43;1.80;;;;;;;;;;5068301;28;20067;-60
2023/02/01 06:04:57;;;;;;;1.87;1.37;;;;;;;;;;5069955;28;20058;-61
2023/02/01 06:07:24;;;;;;;2.87;1.80;;;;;;;;;;5073005;28;20024;-61
2023/02/01 06:09:51;;;;;;;1.93;1.57;;;;;;;;;;5069452;28;20024;-61
2023/02/01 06:12:18;;;;;;;3.03;1.90;;;;;;;;;;5067787;28;20032;-61
2023/02/01 06:14:45;;;;;;;1.33;1.20;;;;;;;;;;5067706;28;20016;-61
2023/02/01 06:17:11;;;;;;;1.70;1.17;;;;;;;;;;5055557;28;20021;-61
2023/02/01 06:19:40;;;;;;;3.27;2.03;;;;;;;;;;5050586;28;20025;-61
2023/02/01 06:22:07;;;;;;;7.70;2.07;;;;;;;;;;5052901;28;20039;-61
2023/02/01 06:24:33;;;;;;;3.77;2.50;;;;;;;;;;5052470;28;20068;-61
2023/02/01 06:27:00;;;;;;;2.23;1.60;;;;;;;;;;5052999;28;20514;-61
2023/02/01 06:29:26;;;;;;;2.50;1.80;;;;;;;;;;5052872;28;20047;-61
2023/02/01 06:31:53;;;;;;;2.77;1.70;;;;;;;;;;5049967;28;20017;-61
2023/02/01 06:34:22;;;;;;;3.03;2.03;;;;;;;;;;5047276;28;20104;-62
2023/02/01 06:36:48;;;;;;;2.97;2.17;;;;;;;;;;5047265;28;20380;-62
2023/02/01 06:39:15;;;;;;;13.17;2.43;;;;;;;;;;5047594;28;20025;-60
2023/02/01 06:41:43;;;;;;;5.30;2.63;;;;;;;;;;5049384;28;20045;-61
2023/02/01 06:44:10;;;;;;;3.50;2.37;;;;;;;;;;5070786;28;20028;-60
2023/02/01 06:46:36;;;;;;;6.27;2.67;;;;;;;;;;5072522;28;20391;-60
2023/02/01 06:49:03;;;;;;;6.87;2.27;;;;;;;;;;5072389;28;20028;-61
2023/02/01 06:51:30;;;;;;;2.67;2.10;;;;;;;;;;5072431;28;20060;-61
2023/02/01 06:53:57;;;;;;;2.00;1.70;;;;;;;;;;5069746;28;20031;-60
2023/02/01 06:56:24;;;;;;;3.40;2.23;;;;;;;;;;5057906;28;20033;-61
2023/02/01 06:58:51;;;;;;;1.63;1.47;;;;;;;;;;5046917;28;20372;-61
2023/02/01 07:01:18;;;;;;;4.30;1.97;;;;;;;;;;5046592;28;20486;-61
2023/02/01 07:03:47;;;;;;;2.10;1.60;;;;;;;;;;5049809;28;20032;-60
2023/02/01 07:06:14;;;;;;;1.20;1.10;;;;;;;;;;5067337;28;20032;-61
2023/02/01 07:08:41;;;;;;;4.60;2.67;;;;;;;;;;5072070;28;20029;-60
2023/02/01 07:11:08;;;;;;;4.50;2.33;;;;;;;;;;5065312;28;20380;-60
2023/02/01 07:13:36;;;;;;;1.97;1.70;;;;;;;;;;5051776;28;20039;-60
2023/02/01 07:16:03;;;;;;;4.57;2.77;;;;;;;;;;5049894;28;20056;-61
2023/02/01 07:18:30;;;;;;;5.37;2.60;;;;;;;;;;5046967;28;20031;-60
2023/02/01 07:20:57;;;;;;;3.00;2.47;;;;;;;;;;5046961;28;20032;-60
2023/02/01 07:23:24;;;;;;;3.13;1.97;;;;;;;;;;5046995;28;20032;-61
2023/02/01 07:25:58;;;;;;;2.13;1.30;;;;;;;;;;5061789;28;20032;-60
2023/02/01 07:28:25;;;;;;;3.77;2.10;;;;;;;;;;5071550;28;20090;-60
2023/02/01 07:30:52;;;;;;;2.60;1.73;;;;;;;;;;5072076;28;20087;-60
2023/02/01 07:33:23;;;;;;;3.27;1.90;;;;;;;;;;5071946;28;20099;-60
2023/02/01 07:35:50;;;;;;;7.03;1.90;;;;;;;;;;5059239;28;20477;-60
2023/02/01 07:38:17;;;;;;;3.03;1.77;;;;;;;;;;5049651;28;20021;-61
2023/02/01 07:40:45;;;;;;;1.83;1.57;;;;;;;;;;5046844;28;20488;-60
2023/02/01 07:43:11;;;;;;;2.93;1.87;;;;;;;;;;5046410;28;20555;-60
2023/02/01 07:45:38;;;;;;;2.57;2.30;;;;;;;;;;5046653;28;20261;-61
2023/02/01 07:48:05;;;;;;;3.93;2.67;;;;;;;;;;5048040;28;20033;-60
2023/02/01 07:50:32;;;;;;;2.57;2.07;;;;;;;;;;5071552;28;20484;-61
2023/02/01 07:53:02;;;;;;;2.20;1.77;;;;;;;;;;5071609;28;20352;-60
2023/02/01 07:55:29;;;;;;;2.03;1.37;;;;;;;;;;5071919;28;20287;-60
2023/02/01 07:57:59;;;;;;;4.03;2.53;;;;;;;;;;5071902;28;20639;-61
2023/02/01 08:03:10;;;;;;;;;;;;;;;;;;5067155;28;20296;-61
2023/02/01 08:05:37;;;;;;;2.33;1.73;;;;;;;;;;5053190;28;19909;-61
2023/02/01 08:08:04;;;;;;;4.70;1.80;;;;;;;;;;5055308;28;20289;-61
2023/02/01 08:10:31;;;;;;;1.77;1.47;;;;;;;;;;5068120;28;20663;-60
2023/02/01 08:13:01;;;;;;;5.40;2.50;;;;;;;;;;5072460;28;20273;-60
2023/02/01 08:15:28;;;;;;;2.90;1.53;;;;;;;;;;5075407;28;20257;-60
2023/02/01 08:17:55;;;;;;;1.23;0.93;;;;;;;;;;5075170;28;20257;-60
2023/02/01 08:20:23;;;;;;;2.93;2.60;;;;;;;;;;5075114;28;20608;-60
2023/02/01 08:22:50;;;;;;;2.87;2.07;;;;;;;;;;5055791;28;20278;-60
2023/02/01 08:25:17;;;;;;;2.37;1.87;;;;;;;;;;5050008;28;20250;-60
2023/02/01 08:27:44;;;;;;;2.97;1.93;;;;;;;;;;5049541;28;20285;-61
2023/02/01 08:30:11;;;;;;;2.77;2.07;;;;;;;;;;5049901;28;20289;-60
2023/02/01 08:32:37;;;;;;;3.40;2.53;;;;;;;;;;5051443;28;20262;-60
2023/02/01 08:35:05;;;;;;;4.10;2.53;;;;;;;;;;5054795;28;20286;-60
2023/02/01 08:37:32;;;;;;;4.97;3.50;;;;;;;;;;5055107;28;20254;-60
2023/02/01 08:39:58;;;;;;;3.20;2.20;;;;;;;;;;5070734;28;20348;-60
2023/02/01 08:45:10;;;;;;;2.78;2.25;;;;;;;;;;5072360;28;20655;-60
2023/02/01 08:47:37;;;;;;;3.07;2.17;;;;;;;;;;5069519;28;20040;-60
2023/02/01 08:50:04;;;;;;;2.60;2.10;;;;;;;;;;5069550;28;20488;-61
2023/02/01 08:52:30;;;;;;;2.80;1.87;;;;;;;;;;5069200;28;20348;-60
2023/02/01 08:54:57;;;;;;;3.90;2.60;;;;;;;;;;5070595;28;20262;-60
2023/02/01 08:57:24;;;;;;;2.33;1.90;;;;;;;;;;5074566;28;20746;-60
2023/02/01 08:59:50;;;;;;;2.53;1.63;;;;;;;;;;5074539;28;20296;-60
2023/02/01 09:02:18;;;;;;;3.33;2.40;;;;;;;;;;5063864;28;20270;-60
2023/02/01 09:04:44;;;;;;;3.03;2.53;;;;;;;;;;5054514;28;20265;-60
2023/02/01 09:07:12;;;;;;;3.37;2.50;;;;;;;;;;5052256;28;20741;-60
2023/02/01 09:09:39;;;;;;;16.90;3.77;;;;;;;;;;5048947;28;20470;-60
2023/02/01 09:12:06;;;;;;;2.90;1.97;;;;;;;;;;5048525;28;20349;-61
2023/02/01 09:14:33;;;;;;;2.47;1.83;;;;;;;;;;5049147;28;20262;-60
2023/02/01 09:16:59;;;;;;;4.20;2.33;;;;;;;;;;5050274;28;20353;-60
2023/02/01 09:19:26;;;;;;;3.37;2.90;;;;;;;;;;5055165;28;20266;-60
2023/02/01 09:21:53;;;;;;;4.63;3.57;;;;;;;;;;5054206;28;20258;-60
2023/02/01 09:24:19;;;;;;;3.07;2.57;;;;;;;;;;5053313;28;20290;-60
2023/02/01 09:26:46;;;;;;;4.27;3.33;;;;;;;;;;5053693;28;20272;-60
2023/02/01 09:29:13;;;;;;;3.30;2.67;;;;;;;;;;5052054;28;20356;-60
2023/02/01 09:31:40;;;;;;;2.40;1.83;;;;;;;;;;5048874;28;20726;-60
2023/02/01 09:34:07;;;;;;;2.97;2.30;;;;;;;;;;5048700;28;20282;-60
2023/02/01 09:36:34;;;;;;;1.70;1.53;;;;;;;;;;5048639;28;20258;-60
2023/02/01 09:39:01;;;;;;;2.67;2.00;;;;;;;;;;5049267;28;20638;-60
2023/02/01 09:41:37;;;;;;;3.10;2.57;;;;;;;;;;5053722;28;20282;-60
2023/02/01 09:44:28;;;;;;;3.50;2.73;;;;;;;;;;5053777;28;20286;-60
2023/02/01 09:46:56;;;;;;;2.67;2.03;;;;;;;;;;5061740;28;20275;-60
2023/02/01 09:49:27;;;;;;;2.43;1.97;;;;;;;;;;5073573;28;20368;-60
2023/02/01 09:51:55;;;;;;;1.53;1.37;;;;;;;;;;5070390;28;20662;-61
2023/02/01 09:54:35;;;;;;;2.37;1.93;;;;;;;;;;5068174;28;20258;-60
2023/02/01 09:57:22;;;;;;;3.97;1.83;;;;;;;;;;5068165;28;20314;-60
2023/02/01 09:59:52;;;;;;;2.17;1.70;;;;;;;;;;5067630;28;20344;-60
2023/02/01 10:02:21;;;;;;;1.10;1.00;;;;;;;;;;5063894;28;21824;-60
2023/02/01 10:04:48;;;;;;;3.63;2.07;;;;;;;;;;5053403;28;20261;-60
2023/02/01 10:07:15;;;;;;;4.20;2.47;;;;;;;;;;5053264;28;20266;-60
2023/02/01 10:09:47;;;;;;;6.20;2.53;;;;;;;;;;5053149;28;20298;-61
2023/02/01 10:12:17;;;;;;;2.37;1.90;;;;;;;;;;5053136;28;20753;-60
2023/02/01 10:14:47;;;;;;;3.20;1.83;;;;;;;;;;5048841;28;20258;-60
2023/02/01 10:17:32;;;;;;;4.33;2.77;;;;;;;;;;5064242;28;20362;-61
2023/02/01 10:20:08;;;;;;;3.20;2.50;;;;;;;;;;5067771;28;20632;-60
2023/02/01 10:22:47;;;;;;;3.73;2.70;;;;;;;;;;5067284;28;20056;-60
2023/02/01 10:25:16;;;;;;;6.20;3.83;;;;;;;;;;5072483;28;20740;-60
2023/02/01 10:27:43;;;;;;;4.07;3.23;;;;;;;;;;5072829;28;20273;-60
2023/02/01 10:30:13;;;;;;;1.73;1.40;;;;;;;;;;5072698;28;20253;-60
2023/02/01 10:32:40;;;;;;;4.97;2.30;;;;;;;;;;5072361;28;20348;-60
2023/02/01 10:35:28;;;;;;;4.03;2.60;;;;;;;;;;5072113;28;20695;-60
2023/02/01 10:37:54;;;;;;;3.53;2.67;;;;;;;;;;5067419;28;20272;-60
2023/02/01 10:40:23;;;;;;;3.20;2.37;;;;;;;;;;5067503;28;20612;-60
2023/02/01 10:43:01;;;;;;;3.53;2.10;;;;;;;;;;5067130;28;20288;-60
2023/02/01 10:45:33;;;;;;;1.87;1.33;;;;;;;;;;5067633;28;20263;-60
2023/02/01 10:48:01;;;;;;;3.13;2.67;;;;;;;;;;5063117;28;20351;-60
2023/02/01 10:50:31;;;;;;;5.97;3.27;;;;;;;;;;5072340;28;20262;-60
2023/02/01 10:53:06;;;;;;;2.87;2.47;;;;;;;;;;5072456;28;20268;-60
2023/02/01 10:55:35;;;;;;;4.97;1.97;;;;;;;;;;5071980;28;20601;-60
2023/02/01 10:58:03;;;;;;;4.60;3.47;;;;;;;;;;5070385;28;20315;-60
2023/02/01 11:00:39;;;;;;;3.07;2.10;;;;;;;;;;5066818;28;20257;-61
2023/02/01 11:03:20;;;;;;;10.27;2.87;;;;;;;;;;5067086;28;20270;-60
2023/02/01 11:05:47;;;;;;;2.77;1.90;;;;;;;;;;5066798;28;20359;-60
2023/02/01 11:08:17;;;;;;;6.43;3.17;;;;;;;;;;5068633;28;20795;-60
2023/02/01 11:10:44;;;;;;;2.13;1.73;;;;;;;;;;5061604;28;20269;-60
2023/02/01 11:13:18;;;;;;;3.87;2.10;;;;;;;;;;5061745;28;20627;-60
2023/02/01 11:15:45;;;;;;;2.30;1.95;;;;;;;;;;5057565;28;20266;-60
2023/02/01 11:18:19;;;;;;;2.10;1.70;;;;;;;;;;5051863;28;20033;-60
2023/02/01 11:20:49;;;;;;;4.60;2.53;;;;;;;;;;5049484;28;20372;-60
2023/02/01 11:23:16;;;;;;;3.90;2.67;;;;;;;;;;5046607;28;20345;-60
2023/02/01 11:25:56;;;;;;;7.77;3.20;;;;;;;;;;5046542;28;20353;-60
2023/02/01 11:28:25;;;;;;;4.57;2.47;;;;;;;;;;5046797;28;20324;-60
2023/02/01 11:30:54;;;;;;;2.27;1.90;;;;;;;;;;5049166;28;20258;-60
2023/02/01 11:33:25;;;;;;;20.03;3.47;;;;;;;;;;5054304;28;20315;-60
2023/02/01 11:35:52;;;;;;;3.63;2.77;;;;;;;;;;5071859;28;20257;-60
2023/02/01 11:38:26;;;;;;;4.10;3.40;;;;;;;;;;5072077;28;20261;-60
2023/02/01 11:40:53;;;;;;;4.43;3.07;;;;;;;;;;5071860;28;20318;-60
2023/02/01 11:43:19;;;;;;;2.50;1.87;;;;;;;;;;5067909;28;20250;-60
2023/02/01 11:45:56;;;;;;;2.77;2.03;;;;;;;;;;5066686;28;20245;-60
2023/02/01 11:48:24;;;;;;;3.40;2.40;;;;;;;;;;5067623;28;20346;-60
2023/02/01 11:50:57;;;;;;;5.83;3.03;;;;;;;;;;5070614;28;20257;-60
2023/02/01 11:53:36;;;;;;;3.83;3.03;;;;;;;;;;5073914;28;20257;-59
2023/02/01 11:56:09;;;;;;;2.47;2.03;;;;;;;;;;5075948;28;20289;-59
2023/02/01 11:58:42;;;;;;;2.80;2.00;;;;;;;;;;5075494;28;20276;-60
2023/02/01 12:01:11;;;;;;;3.70;2.70;;;;;;;;;;5075661;28;20569;-60
2023/02/01 12:03:38;;;;;;;4.13;2.87;;;;;;;;;;5066165;28;20261;-59
2023/02/01 12:06:05;;;;;;;5.23;2.83;;;;;;;;;;5050646;28;20648;-60
2023/02/01 12:08:31;;;;;;;6.67;3.13;;;;;;;;;;5050083;28;21253;-61
2023/02/01 12:11:11;;;;;;;4.50;3.17;;;;;;;;;;5050638;28;20604;-60
2023/02/01 12:13:43;;;;;;;3.67;2.63;;;;;;;;;;5050132;28;20323;-60
2023/02/01 12:16:34;;;;;;;5.67;2.20;;;;;;;;;;5054675;28;20288;-60
2023/02/01 12:19:15;;;;;;;3.53;2.70;;;;;;;;;;5055191;28;20266;-60
2023/02/01 12:21:48;;;;;;;6.00;2.67;;;;;;;;;;5055458;28;20273;-60
2023/02/01 12:24:33;;;;;;;3.33;2.93;;;;;;;;;;5054877;28;20729;-60
2023/02/01 12:27:02;;;;;;;5.38;3.85;;;;;;;;;;5053528;28;20251;-60
2023/02/01 12:29:40;;;;;;;4.73;2.37;;;;;;;;;;5049806;28;20117;-59
2023/02/01 12:32:25;;;;;;;4.00;2.37;;;;;;;;;;5049794;28;20254;-60
2023/02/01 12:34:55;;;;;;;1.95;1.58;;;;;;;;;;5059181;28;20778;-60
2023/02/01 12:37:31;;;;;;;4.00;2.83;;;;;;;;;;5072164;28;20025;-59
2023/02/01 12:40:06;;;;;;;5.77;4.10;;;;;;;;;;5075023;28;20249;-60
2023/02/01 12:42:46;;;;;;;11.13;6.17;;;;;;;;;;5074828;28;20264;-60
2023/02/01 12:45:42;;;;;;;5.23;4.30;;;;;;;;;;5075145;28;20292;-60
2023/02/01 12:48:21;;;;;;;5.70;3.80;;;;;;;;;;5053562;28;20380;-60
2023/02/01 12:50:54;;;;;;;3.97;2.80;;;;;;;;;;5069027;28;20361;-60
2023/02/01 12:53:28;;;;;;;7.50;3.93;;;;;;;;;;5069259;28;20783;-60
2023/02/01 12:55:56;;;;;;;3.97;3.10;;;;;;;;;;5069404;28;20269;-60
2023/02/01 12:58:26;;;;;;;9.23;4.00;;;;;;;;;;5068880;28;20748;-60
2023/02/01 13:00:58;;;;;;;3.30;2.90;;;;;;;;;;5072421;28;20238;-60
2023/02/01 13:03:31;;;;;;;4.53;3.33;;;;;;;;;;5057957;28;20274;-60
2023/02/01 13:06:02;;;;;;;2.80;1.93;;;;;;;;;;5054425;28;20333;-60
2023/02/01 13:09:01;;;;;;;4.47;3.50;;;;;;;;;;5054113;28;20281;-60
2023/02/01 13:11:41;;;;;;;5.13;4.63;;;;;;;;;;5018947;28;20613;-61
2023/02/01 13:14:22;;;;;;;5.07;4.23;;;;;;;;;;5048830;28;20298;-60
2023/02/01 13:16:54;;;;;;;16.17;3.80;;;;;;;;;;5049760;28;20315;-60
2023/02/01 13:19:27;;;;;;;6.67;4.40;;;;;;;;;;5066970;28;20292;-60
2023/02/01 13:21:59;;;;;;;6.20;2.83;;;;;;;;;;5071576;28;20600;-60
2023/02/01 13:24:30;;;;;;;6.90;4.07;;;;;;;;;;5073642;28;20272;-60
2023/02/01 13:26:57;;;;;;;4.37;3.27;;;;;;;;;;5074061;28;20313;-60
2023/02/01 13:29:25;;;;;;;7.23;4.43;;;;;;;;;;5074070;28;20281;-60
2023/02/01 13:31:54;;;;;;;5.63;3.57;;;;;;;;;;5065355;28;20292;-60
2023/02/01 13:34:29;;;;;;;8.60;5.27;;;;;;;;;;5070397;28;20340;-60
2023/02/01 13:37:05;;;;;;;10.77;4.53;;;;;;;;;;5068547;28;20254;-61
2023/02/01 13:39:32;;;;;;;11.33;5.07;;;;;;;;;;5068518;28;20246;-60
2023/02/01 13:42:01;;;;;;;26.40;3.43;;;;;;;;;;5066878;28;20698;-60
2023/02/01 13:44:41;;;;;;;11.10;4.00;;;;;;;;;;5065084;28;20274;-60
2023/02/01 13:47:31;;;;;;;5.67;3.97;;;;;;;;;;5053398;28;20256;-60
2023/02/01 13:50:02;;;;;;;11.67;4.93;;;;;;;;;;5045399;28;20289;-60
2023/02/01 13:52:41;;;;;;;12.20;6.00;;;;;;;;;;5053687;28;20754;-61
2023/02/01 13:55:14;;;;;;;10.20;6.27;;;;;;;;;;5054464;28;20683;-61
2023/02/01 13:57:43;;;;;;;10.37;5.53;;;;;;;;;;5067278;28;20266;-61
2023/02/01 14:00:32;;;;;;;22.87;7.60;;;;;;;;;;5068010;28;20258;-61
2023/02/01 14:03:02;;;;;;;11.37;6.80;;;;;;;;;;5067891;28;20245;-61
2023/02/01 14:05:34;;;;;;;32.43;7.07;;;;;;;;;;5067762;28;20253;-60
2023/02/01 14:08:03;;;;;;;26.90;7.33;;;;;;;;;;5072191;28;20289;-61
2023/02/01 14:10:55;;;;;;;21.90;4.30;;;;;;;;;;5058470;28;20327;-61
2023/02/01 14:13:35;;;;;;;86.53;11.00;;;;;;;;;;5052912;28;20352;-61
2023/02/01 14:16:08;;;;;;;30.87;7.33;;;;;;;;;;5052903;28;20282;-61
2023/02/01 14:18:41;;;;;;;27.93;8.97;;;;;;;;;;5049884;28;20301;-61
2023/02/01 14:21:14;;;;;;;14.93;6.07;;;;;;;;;;5047655;28;20021;-61
2023/02/01 14:23:42;;;;;;;44.47;11.10;;;;;;;;;;5047417;28;20491;-61
2023/02/01 14:26:11;;;;;;;12.63;8.30;;;;;;;;;;5047450;28;20060;-61
2023/02/01 14:28:41;;;;;;;17.77;9.97;;;;;;;;;;5050179;28;20029;-61
2023/02/01 14:31:23;;;;;;;8.37;6.00;;;;;;;;;;5052830;28;20017;-61
2023/02/01 14:33:50;;;;;;;10.63;5.93;;;;;;;;;;5054083;28;20056;-61
2023/02/01 14:36:17;;;;;;;13.33;5.57;;;;;;;;;;5072323;28;20055;-61
2023/02/01 14:38:49;;;;;;;6.73;4.47;;;;;;;;;;5072807;28;20020;-62
2023/02/01 14:41:27;;;;;;;6.07;4.23;;;;;;;;;;5068631;28;20091;-62
2023/02/01 14:44:03;;;;;;;6.17;4.30;;;;;;;;;;5067242;28;20031;-62
2023/02/01 14:46:48;;;;;;;4.80;3.33;;;;;;;;;;5066912;28;20335;-61
2023/02/01 14:49:16;;;;;;;12.23;4.30;;;;;;;;;;5066548;28;20075;-61
2023/02/01 14:51:42;;;;;;;4.63;3.60;;;;;;;;;;5071832;28;20020;-61
2023/02/01 14:54:13;;;;;;;7.17;4.60;;;;;;;;;;5072380;28;20025;-61
2023/02/01 14:56:40;;;;;;;6.63;4.07;;;;;;;;;;5072655;28;20044;-61
2023/02/01 14:59:16;;;;;;;6.67;5.37;;;;;;;;;;5071878;28;20103;-62
2023/02/01 15:01:51;;;;;;;7.40;4.50;;;;;;;;;;5072133;28;20052;-61
2023/02/01 15:04:21;;;;;;;7.00;3.37;;;;;;;;;;5060844;28;20487;-62
2023/02/01 15:06:54;;;;;;;4.43;2.90;;;;;;;;;;5046592;28;20451;-62
2023/02/01 15:09:25;;;;;;;4.83;3.20;;;;;;;;;;5046220;28;20498;-62
2023/02/01 15:11:56;;;;;;;5.83;3.83;;;;;;;;;;5046685;28;20036;-62
2023/02/01 15:14:23;;;;;;;8.00;4.10;;;;;;;;;;5051788;28;20021;-62
2023/02/01 15:16:53;;;;;;;5.33;3.93;;;;;;;;;;5052131;28;20017;-62
2023/02/01 15:19:21;;;;;;;8.63;3.27;;;;;;;;;;5051894;28;20534;-62
2023/02/01 15:21:49;;;;;;;8.40;4.83;;;;;;;;;;5051728;28;20021;-62
2023/02/01 15:24:23;;;;;;;12.60;3.87;;;;;;;;;;5050783;28;20166;-62
2023/02/01 15:26:51;;;;;;;6.67;3.10;;;;;;;;;;5046573;28;20048;-62
2023/02/01 15:29:18;;;;;;;4.40;2.70;;;;;;;;;;5046639;28;20282;-62